sensor_id;sensor_type;location;lat;lon;timestamp;temperature;humidity
18779;DHT22;9518;51.720;14.384;2024-03-25T00:01:53;5.00;99.90
18779;DHT22;9518;51.720;14.384;2024-03-25T00:04:21;5.00;99.90
18779;DHT22;9518;51.720;14.384;2024-03-25T00:06:48;4.90;99.90
18779;DHT22;9518;51.720;14.384;2024-03-25T00:09:17;4.90;99.90
18779;DHT22;9518;51.720;14.384;2024-03-25T00:11:44;4.90;99.90
18779;DHT22;9518;51.720;14.384;2024-03-25T00:14:11;4.90;99.90
18779;DHT22;9518;51.720;14.384;2024-03-25T00:16:37;4.90;99.90
18779;DHT22;9518;51.720;14.384;2024-03-25T00:19:04;4.90;99.90
18779;DHT22;9518;51.720;14.384;2024-03-25T00:21:30;4.90;99.90
18779;DHT22;9518;51.720;14.384;2024-03-25T00:23:57;5.00;99.90
18779;DHT22;9518;51.720;14.384;2024-03-25T00:26:23;4.90;99.90
18779;DHT22;9518;51.720;14.384;2024-03-25T00:28:52;4.90;99.90
18779;DHT22;9518;51.720;14.384;2024-03-25T00:31:18;4.90;99.90
18779;DHT22;9518;51.720;14.384;2024-03-25T00:33:45;4.80;99.90
18779;DHT22;9518;51.720;14.384;2024-03-25T00:36:11;4.90;99.90
18779;DHT22;9518;51.720;14.384;2024-03-25T00:38:38;4.80;99.90
18779;DHT22;9518;51.720;14.384;2024-03-25T00:41:04;4.80;99.90
18779;DHT22;9518;51.720;14.384;2024-03-25T00:43:31;4.80;99.90
18779;DHT22;9518;51.720;14.384;2024-03-25T00:45:59;4.80;99.90
18779;DHT22;9518;51.720;14.384;2024-03-25T00:48:26;4.70;99.90
18779;DHT22;9518;51.720;14.384;2024-03-25T00:50:52;4.70;99.90
18779;DHT22;9518;51.720;14.384;2024-03-25T00:53:19;4.70;99.90
18779;DHT22;9518;51.720;14.384;2024-03-25T00:55:45;4.70;99.90
18779;DHT22;9518;51.720;14.384;2024-03-25T00:58:12;4.60;99.90
18779;DHT22;9518;51.720;14.384;2024-03-25T01:00:38;4.60;99.90
18779;DHT22;9518;51.720;14.384;2024-03-25T01:03:07;4.60;99.90
18779;DHT22;9518;51.720;14.384;2024-03-25T01:05:33;4.60;99.90
18779;DHT22;9518;51.720;14.384;2024-03-25T01:08:00;4.60;99.90
18779;DHT22;9518;51.720;14.384;2024-03-25T01:10:26;4.60;99.90
18779;DHT22;9518;51.720;14.384;2024-03-25T01:12:53;4.60;99.90
18779;DHT22;9518;51.720;14.384;2024-03-25T01:15:23;4.60;99.90
18779;DHT22;9518;51.720;14.384;2024-03-25T01:17:50;4.60;99.90
18779;DHT22;9518;51.720;14.384;2024-03-25T01:20:17;4.60;99.90
18779;DHT22;9518;51.720;14.384;2024-03-25T01:22:44;4.50;99.90
18779;DHT22;9518;51.720;14.384;2024-03-25T01:25:10;4.50;99.90
18779;DHT22;9518;51.720;14.384;2024-03-25T01:27:37;4.50;99.90
18779;DHT22;9518;51.720;14.384;2024-03-25T01:30:04;4.50;99.90
18779;DHT22;9518;51.720;14.384;2024-03-25T01:32:31;4.50;99.90
18779;DHT22;9518;51.720;14.384;2024-03-25T01:34:57;4.40;99.90
18779;DHT22;9518;51.720;14.384;2024-03-25T01:37:26;4.40;99.90
18779;DHT22;9518;51.720;14.384;2024-03-25T01:39:51;4.50;99.90
18779;DHT22;9518;51.720;14.384;2024-03-25T01:42:19;4.40;99.90
18779;DHT22;9518;51.720;14.384;2024-03-25T01:44:45;4.40;99.90
18779;DHT22;9518;51.720;14.384;2024-03-25T01:47:12;4.40;99.90
18779;DHT22;9518;51.720;14.384;2024-03-25T01:49:39;4.50;99.90
18779;DHT22;9518;51.720;14.384;2024-03-25T01:52:06;4.40;99.90
18779;DHT22;9518;51.720;14.384;2024-03-25T01:54:33;4.40;99.90
18779;DHT22;9518;51.720;14.384;2024-03-25T01:57:01;4.40;99.90
18779;DHT22;9518;51.720;14.384;2024-03-25T01:59:27;4.50;99.90
18779;DHT22;9518;51.720;14.384;2024-03-25T02:01:55;4.50;99.90
18779;DHT22;9518;51.720;14.384;2024-03-25T02:04:22;4.50;99.90
18779;DHT22;9518;51.720;14.384;2024-03-25T02:06:49;4.50;99.90
18779;DHT22;9518;51.720;14.384;2024-03-25T02:09:15;4.50;99.90
18779;DHT22;9518;51.720;14.384;2024-03-25T02:11:45;4.50;99.90
18779;DHT22;9518;51.720;14.384;2024-03-25T02:14:12;4.50;99.90
18779;DHT22;9518;51.720;14.384;2024-03-25T02:16:39;4.50;99.90
18779;DHT22;9518;51.720;14.384;2024-03-25T02:19:05;4.50;99.90
18779;DHT22;9518;51.720;14.384;2024-03-25T02:21:32;4.50;99.90
18779;DHT22;9518;51.720;14.384;2024-03-25T02:24:00;4.50;99.90
18779;DHT22;9518;51.720;14.384;2024-03-25T02:26:30;4.50;99.90
18779;DHT22;9518;51.720;14.384;2024-03-25T02:28:56;4.50;99.90
18779;DHT22;9518;51.720;14.384;2024-03-25T02:31:23;4.50;99.90
18779;DHT22;9518;51.720;14.384;2024-03-25T02:33:49;4.50;99.90
18779;DHT22;9518;51.720;14.384;2024-03-25T02:36:17;4.50;99.90
18779;DHT22;9518;51.720;14.384;2024-03-25T02:38:43;4.50;99.90
18779;DHT22;9518;51.720;14.384;2024-03-25T02:41:10;4.50;99.90
18779;DHT22;9518;51.720;14.384;2024-03-25T02:43:38;4.50;99.90
18779;DHT22;9518;51.720;14.384;2024-03-25T02:46:05;4.50;99.90
18779;DHT22;9518;51.720;14.384;2024-03-25T02:48:31;4.50;99.90
18779;DHT22;9518;51.720;14.384;2024-03-25T02:50:58;4.60;99.90
18779;DHT22;9518;51.720;14.384;2024-03-25T02:53:24;4.50;99.90
18779;DHT22;9518;51.720;14.384;2024-03-25T02:55:51;4.50;99.90
18779;DHT22;9518;51.720;14.384;2024-03-25T02:58:17;4.60;99.90
18779;DHT22;9518;51.720;14.384;2024-03-25T03:00:46;4.50;99.90
18779;DHT22;9518;51.720;14.384;2024-03-25T03:03:12;4.50;99.90
18779;DHT22;9518;51.720;14.384;2024-03-25T03:05:39;4.50;99.90
18779;DHT22;9518;51.720;14.384;2024-03-25T03:08:05;4.50;99.90
18779;DHT22;9518;51.720;14.384;2024-03-25T03:10:32;4.60;99.90
18779;DHT22;9518;51.720;14.384;2024-03-25T03:12:58;4.60;99.90
18779;DHT22;9518;51.720;14.384;2024-03-25T03:15:25;4.60;99.90
18779;DHT22;9518;51.720;14.384;2024-03-25T03:17:52;4.60;99.90
18779;DHT22;9518;51.720;14.384;2024-03-25T03:20:21;4.60;99.90
18779;DHT22;9518;51.720;14.384;2024-03-25T03:22:47;4.60;99.90
18779;DHT22;9518;51.720;14.384;2024-03-25T03:25:14;4.60;99.90
18779;DHT22;9518;51.720;14.384;2024-03-25T03:27:39;4.50;99.90
18779;DHT22;9518;51.720;14.384;2024-03-25T03:30:07;4.50;99.90
18779;DHT22;9518;51.720;14.384;2024-03-25T03:32:33;4.50;99.90
18779;DHT22;9518;51.720;14.384;2024-03-25T03:35:01;4.50;99.90
18779;DHT22;9518;51.720;14.384;2024-03-25T03:37:27;4.50;99.90
18779;DHT22;9518;51.720;14.384;2024-03-25T03:39:54;4.50;99.90
18779;DHT22;9518;51.720;14.384;2024-03-25T03:42:20;4.50;99.90
18779;DHT22;9518;51.720;14.384;2024-03-25T03:44:47;4.50;99.90
18779;DHT22;9518;51.720;14.384;2024-03-25T03:47:13;4.50;99.90
18779;DHT22;9518;51.720;14.384;2024-03-25T03:49:40;4.60;99.90
18779;DHT22;9518;51.720;14.384;2024-03-25T03:52:07;4.60;99.90
18779;DHT22;9518;51.720;14.384;2024-03-25T03:54:34;4.60;99.90
18779;DHT22;9518;51.720;14.384;2024-03-25T03:57:00;4.50;99.90
18779;DHT22;9518;51.720;14.384;2024-03-25T03:59:27;4.60;99.90
18779;DHT22;9518;51.720;14.384;2024-03-25T04:01:53;4.60;99.90
18779;DHT22;9518;51.720;14.384;2024-03-25T04:04:20;4.60;99.90
18779;DHT22;9518;51.720;14.384;2024-03-25T04:06:46;4.60;99.90
18779;DHT22;9518;51.720;14.384;2024-03-25T04:09:15;4.60;99.90
18779;DHT22;9518;51.720;14.384;2024-03-25T04:11:42;4.60;99.90
18779;DHT22;9518;51.720;14.384;2024-03-25T04:14:08;4.60;99.90
18779;DHT22;9518;51.720;14.384;2024-03-25T04:16:35;4.60;99.90
18779;DHT22;9518;51.720;14.384;2024-03-25T04:19:01;4.60;99.90
18779;DHT22;9518;51.720;14.384;2024-03-25T04:21:28;4.60;99.90
18779;DHT22;9518;51.720;14.384;2024-03-25T04:23:54;4.60;99.90
18779;DHT22;9518;51.720;14.384;2024-03-25T04:26:22;4.60;99.90
18779;DHT22;9518;51.720;14.384;2024-03-25T04:28:48;4.60;99.90
18779;DHT22;9518;51.720;14.384;2024-03-25T04:31:15;4.60;99.90
18779;DHT22;9518;51.720;14.384;2024-03-25T04:33:41;4.60;99.90
18779;DHT22;9518;51.720;14.384;2024-03-25T04:36:08;4.50;99.90
18779;DHT22;9518;51.720;14.384;2024-03-25T04:38:34;4.50;99.90
18779;DHT22;9518;51.720;14.384;2024-03-25T04:41:00;4.50;99.90
18779;DHT22;9518;51.720;14.384;2024-03-25T04:43:27;4.50;99.90
18779;DHT22;9518;51.720;14.384;2024-03-25T04:45:53;4.50;99.90
18779;DHT22;9518;51.720;14.384;2024-03-25T04:48:19;4.50;99.90
18779;DHT22;9518;51.720;14.384;2024-03-25T04:50:45;4.50;99.90
18779;DHT22;9518;51.720;14.384;2024-03-25T04:53:11;4.50;99.90
18779;DHT22;9518;51.720;14.384;2024-03-25T04:55:37;4.50;99.90
18779;DHT22;9518;51.720;14.384;2024-03-25T04:58:03;4.50;99.90
18779;DHT22;9518;51.720;14.384;2024-03-25T05:00:31;4.50;99.90
18779;DHT22;9518;51.720;14.384;2024-03-25T05:02:57;4.50;99.90
18779;DHT22;9518;51.720;14.384;2024-03-25T05:05:23;4.50;99.90
18779;DHT22;9518;51.720;14.384;2024-03-25T05:07:49;4.50;99.90
18779;DHT22;9518;51.720;14.384;2024-03-25T05:10:15;4.50;99.90
18779;DHT22;9518;51.720;14.384;2024-03-25T05:12:41;4.50;99.90
18779;DHT22;9518;51.720;14.384;2024-03-25T05:15:07;4.50;99.90
18779;DHT22;9518;51.720;14.384;2024-03-25T05:17:35;4.50;99.90
18779;DHT22;9518;51.720;14.384;2024-03-25T05:20:01;4.50;99.90
18779;DHT22;9518;51.720;14.384;2024-03-25T05:22:27;4.50;99.90
18779;DHT22;9518;51.720;14.384;2024-03-25T05:24:53;4.50;99.90
18779;DHT22;9518;51.720;14.384;2024-03-25T05:27:19;4.50;99.90
18779;DHT22;9518;51.720;14.384;2024-03-25T05:29:45;4.60;99.90
18779;DHT22;9518;51.720;14.384;2024-03-25T05:32:11;4.50;99.90
18779;DHT22;9518;51.720;14.384;2024-03-25T05:34:38;4.60;99.90
18779;DHT22;9518;51.720;14.384;2024-03-25T05:37:04;4.60;99.90
18779;DHT22;9518;51.720;14.384;2024-03-25T05:39:30;4.60;99.90
18779;DHT22;9518;51.720;14.384;2024-03-25T05:41:56;4.60;99.90
18779;DHT22;9518;51.720;14.384;2024-03-25T05:44:22;4.60;99.90
18779;DHT22;9518;51.720;14.384;2024-03-25T05:46:48;4.60;99.90
18779;DHT22;9518;51.720;14.384;2024-03-25T05:49:14;4.60;99.90
18779;DHT22;9518;51.720;14.384;2024-03-25T05:51:42;4.60;99.90
18779;DHT22;9518;51.720;14.384;2024-03-25T05:54:08;4.70;99.90
18779;DHT22;9518;51.720;14.384;2024-03-25T05:56:34;4.60;99.90
18779;DHT22;9518;51.720;14.384;2024-03-25T05:59:00;4.60;99.90
18779;DHT22;9518;51.720;14.384;2024-03-25T06:01:26;4.70;99.90
18779;DHT22;9518;51.720;14.384;2024-03-25T06:03:53;4.70;99.90
18779;DHT22;9518;51.720;14.384;2024-03-25T06:06:19;4.60;99.90
18779;DHT22;9518;51.720;14.384;2024-03-25T06:08:46;4.60;99.90
18779;DHT22;9518;51.720;14.384;2024-03-25T06:11:13;4.60;99.90
18779;DHT22;9518;51.720;14.384;2024-03-25T06:13:39;4.60;99.90
18779;DHT22;9518;51.720;14.384;2024-03-25T06:16:05;4.60;99.90
18779;DHT22;9518;51.720;14.384;2024-03-25T06:18:31;4.60;99.90
18779;DHT22;9518;51.720;14.384;2024-03-25T06:20:57;4.60;99.90
18779;DHT22;9518;51.720;14.384;2024-03-25T06:23:24;4.60;99.90
18779;DHT22;9518;51.720;14.384;2024-03-25T06:25:53;4.60;99.90
18779;DHT22;9518;51.720;14.384;2024-03-25T06:28:20;4.60;99.90
18779;DHT22;9518;51.720;14.384;2024-03-25T06:30:46;4.70;99.90
18779;DHT22;9518;51.720;14.384;2024-03-25T06:33:31;4.60;99.90
18779;DHT22;9518;51.720;14.384;2024-03-25T06:36:16;4.60;99.90
18779;DHT22;9518;51.720;14.384;2024-03-25T06:38:42;4.60;99.90
18779;DHT22;9518;51.720;14.384;2024-03-25T06:41:09;4.60;99.90
18779;DHT22;9518;51.720;14.384;2024-03-25T06:43:36;4.60;99.90
18779;DHT22;9518;51.720;14.384;2024-03-25T06:46:02;4.60;99.90
18779;DHT22;9518;51.720;14.384;2024-03-25T06:48:28;4.60;99.90
18779;DHT22;9518;51.720;14.384;2024-03-25T06:50:55;4.60;99.90
18779;DHT22;9518;51.720;14.384;2024-03-25T06:53:21;4.60;99.90
18779;DHT22;9518;51.720;14.384;2024-03-25T06:55:52;4.60;99.90
18779;DHT22;9518;51.720;14.384;2024-03-25T06:58:20;4.60;99.90
18779;DHT22;9518;51.720;14.384;2024-03-25T07:00:47;4.60;99.90
18779;DHT22;9518;51.720;14.384;2024-03-25T07:03:13;4.60;99.90
18779;DHT22;9518;51.720;14.384;2024-03-25T07:05:39;4.60;99.90
18779;DHT22;9518;51.720;14.384;2024-03-25T07:08:06;4.60;99.90
18779;DHT22;9518;51.720;14.384;2024-03-25T07:10:32;4.70;99.90
18779;DHT22;9518;51.720;14.384;2024-03-25T07:12:58;4.70;99.90
18779;DHT22;9518;51.720;14.384;2024-03-25T07:15:25;4.70;99.90
18779;DHT22;9518;51.720;14.384;2024-03-25T07:17:51;4.70;99.90
18779;DHT22;9518;51.720;14.384;2024-03-25T07:20:17;4.80;99.90
18779;DHT22;9518;51.720;14.384;2024-03-25T07:22:43;4.70;99.90
18779;DHT22;9518;51.720;14.384;2024-03-25T07:25:09;4.80;99.90
18779;DHT22;9518;51.720;14.384;2024-03-25T07:27:35;4.70;99.90
18779;DHT22;9518;51.720;14.384;2024-03-25T07:30:06;4.70;99.90
18779;DHT22;9518;51.720;14.384;2024-03-25T07:32:34;4.80;99.90
18779;DHT22;9518;51.720;14.384;2024-03-25T07:35:00;4.80;99.90
18779;DHT22;9518;51.720;14.384;2024-03-25T07:37:26;4.80;99.90
18779;DHT22;9518;51.720;14.384;2024-03-25T07:39:52;4.80;99.90
18779;DHT22;9518;51.720;14.384;2024-03-25T07:42:18;4.80;99.90
18779;DHT22;9518;51.720;14.384;2024-03-25T07:44:44;4.80;99.90
18779;DHT22;9518;51.720;14.384;2024-03-25T07:47:10;4.80;99.90
18779;DHT22;9518;51.720;14.384;2024-03-25T07:49:38;4.90;99.90
18779;DHT22;9518;51.720;14.384;2024-03-25T07:52:05;4.80;99.90
18779;DHT22;9518;51.720;14.384;2024-03-25T07:54:31;4.90;99.90
18779;DHT22;9518;51.720;14.384;2024-03-25T07:56:57;5.00;99.90
18779;DHT22;9518;51.720;14.384;2024-03-25T07:59:23;5.00;99.90
18779;DHT22;9518;51.720;14.384;2024-03-25T08:01:49;5.00;99.90
18779;DHT22;9518;51.720;14.384;2024-03-25T08:04:15;5.10;99.90
18779;DHT22;9518;51.720;14.384;2024-03-25T08:06:43;5.20;99.90
18779;DHT22;9518;51.720;14.384;2024-03-25T08:09:09;5.30;99.90
18779;DHT22;9518;51.720;14.384;2024-03-25T08:11:36;5.20;99.90
18779;DHT22;9518;51.720;14.384;2024-03-25T08:14:02;5.20;99.90
18779;DHT22;9518;51.720;14.384;2024-03-25T08:16:28;5.30;99.90
18779;DHT22;9518;51.720;14.384;2024-03-25T08:18:54;5.20;99.90
18779;DHT22;9518;51.720;14.384;2024-03-25T08:21:20;5.30;99.90
18779;DHT22;9518;51.720;14.384;2024-03-25T08:23:48;5.30;99.90
18779;DHT22;9518;51.720;14.384;2024-03-25T08:26:14;5.30;99.90
18779;DHT22;9518;51.720;14.384;2024-03-25T08:28:40;5.40;99.90
18779;DHT22;9518;51.720;14.384;2024-03-25T08:31:06;5.50;99.90
18779;DHT22;9518;51.720;14.384;2024-03-25T08:33:32;5.60;99.90
18779;DHT22;9518;51.720;14.384;2024-03-25T08:35:58;5.70;99.90
18779;DHT22;9518;51.720;14.384;2024-03-25T08:38:24;5.90;99.90
18779;DHT22;9518;51.720;14.384;2024-03-25T08:40:52;5.90;99.90
18779;DHT22;9518;51.720;14.384;2024-03-25T08:43:18;6.00;99.90
18779;DHT22;9518;51.720;14.384;2024-03-25T08:45:44;6.10;99.90
18779;DHT22;9518;51.720;14.384;2024-03-25T08:48:10;6.20;99.90
18779;DHT22;9518;51.720;14.384;2024-03-25T08:50:36;6.20;99.90
18779;DHT22;9518;51.720;14.384;2024-03-25T08:53:03;6.30;99.90
18779;DHT22;9518;51.720;14.384;2024-03-25T08:55:29;6.40;99.90
18779;DHT22;9518;51.720;14.384;2024-03-25T08:57:57;6.70;99.90
18779;DHT22;9518;51.720;14.384;2024-03-25T09:00:24;6.70;99.90
18779;DHT22;9518;51.720;14.384;2024-03-25T09:02:50;6.80;99.90
18779;DHT22;9518;51.720;14.384;2024-03-25T09:05:16;6.80;99.90
18779;DHT22;9518;51.720;14.384;2024-03-25T09:07:43;6.80;99.90
18779;DHT22;9518;51.720;14.384;2024-03-25T09:10:10;6.80;99.90
18779;DHT22;9518;51.720;14.384;2024-03-25T09:12:53;6.70;99.90
18779;DHT22;9518;51.720;14.384;2024-03-25T09:15:21;6.60;99.90
18779;DHT22;9518;51.720;14.384;2024-03-25T09:17:47;6.60;99.90
18779;DHT22;9518;51.720;14.384;2024-03-25T09:20:13;6.60;99.90
18779;DHT22;9518;51.720;14.384;2024-03-25T09:22:42;6.60;99.90
18779;DHT22;9518;51.720;14.384;2024-03-25T09:25:08;6.80;99.90
18779;DHT22;9518;51.720;14.384;2024-03-25T09:27:35;6.80;99.90
18779;DHT22;9518;51.720;14.384;2024-03-25T09:30:02;6.80;99.90
18779;DHT22;9518;51.720;14.384;2024-03-25T09:32:30;6.90;99.90
18779;DHT22;9518;51.720;14.384;2024-03-25T09:34:56;6.90;99.90
18779;DHT22;9518;51.720;14.384;2024-03-25T09:37:22;7.00;99.90
18779;DHT22;9518;51.720;14.384;2024-03-25T09:39:48;7.00;99.90
18779;DHT22;9518;51.720;14.384;2024-03-25T09:42:25;7.00;99.90
18779;DHT22;9518;51.720;14.384;2024-03-25T09:44:53;7.10;99.90
18779;DHT22;9518;51.720;14.384;2024-03-25T09:47:20;7.00;99.90
18779;DHT22;9518;51.720;14.384;2024-03-25T09:49:48;7.00;99.90
18779;DHT22;9518;51.720;14.384;2024-03-25T09:52:14;6.90;99.90
18779;DHT22;9518;51.720;14.384;2024-03-25T09:54:41;6.80;99.90
18779;DHT22;9518;51.720;14.384;2024-03-25T09:57:08;6.70;99.90
18779;DHT22;9518;51.720;14.384;2024-03-25T09:59:34;6.70;99.90
18779;DHT22;9518;51.720;14.384;2024-03-25T10:02:01;6.80;99.90
18779;DHT22;9518;51.720;14.384;2024-03-25T10:04:28;6.90;99.90
18779;DHT22;9518;51.720;14.384;2024-03-25T10:06:55;7.30;99.90
18779;DHT22;9518;51.720;14.384;2024-03-25T10:09:23;7.70;99.90
18779;DHT22;9518;51.720;14.384;2024-03-25T10:11:49;7.90;99.90
18779;DHT22;9518;51.720;14.384;2024-03-25T10:14:16;8.20;99.90
18779;DHT22;9518;51.720;14.384;2024-03-25T10:16:42;8.30;99.90
18779;DHT22;9518;51.720;14.384;2024-03-25T10:19:09;8.20;99.90
18779;DHT22;9518;51.720;14.384;2024-03-25T10:21:37;8.20;99.90
18779;DHT22;9518;51.720;14.384;2024-03-25T10:24:06;8.00;99.90
18779;DHT22;9518;51.720;14.384;2024-03-25T10:26:33;7.80;99.90
18779;DHT22;9518;51.720;14.384;2024-03-25T10:29:01;7.60;99.90
18779;DHT22;9518;51.720;14.384;2024-03-25T10:31:28;7.40;99.90
18779;DHT22;9518;51.720;14.384;2024-03-25T10:33:54;7.30;99.90
18779;DHT22;9518;51.720;14.384;2024-03-25T10:36:21;7.30;99.90
18779;DHT22;9518;51.720;14.384;2024-03-25T10:38:49;7.20;99.90
18779;DHT22;9518;51.720;14.384;2024-03-25T10:41:18;7.20;99.90
18779;DHT22;9518;51.720;14.384;2024-03-25T10:43:46;7.20;99.90
18779;DHT22;9518;51.720;14.384;2024-03-25T10:46:17;7.10;99.90
18779;DHT22;9518;51.720;14.384;2024-03-25T10:48:48;7.20;99.90
18779;DHT22;9518;51.720;14.384;2024-03-25T10:51:21;7.10;99.90
18779;DHT22;9518;51.720;14.384;2024-03-25T10:53:51;7.10;99.90
18779;DHT22;9518;51.720;14.384;2024-03-25T10:56:21;7.10;99.90
18779;DHT22;9518;51.720;14.384;2024-03-25T10:58:49;7.00;99.90
18779;DHT22;9518;51.720;14.384;2024-03-25T11:01:17;7.00;99.90
18779;DHT22;9518;51.720;14.384;2024-03-25T11:03:45;7.10;99.90
18779;DHT22;9518;51.720;14.384;2024-03-25T11:06:12;7.20;99.90
18779;DHT22;9518;51.720;14.384;2024-03-25T11:08:38;7.20;99.90
18779;DHT22;9518;51.720;14.384;2024-03-25T11:11:05;7.20;99.90
18779;DHT22;9518;51.720;14.384;2024-03-25T11:13:33;7.20;99.90
18779;DHT22;9518;51.720;14.384;2024-03-25T11:16:00;7.10;99.90
18779;DHT22;9518;51.720;14.384;2024-03-25T11:18:26;6.70;99.90
18779;DHT22;9518;51.720;14.384;2024-03-25T11:21:03;6.40;99.90
18779;DHT22;9518;51.720;14.384;2024-03-25T11:23:37;6.50;99.90
18779;DHT22;9518;51.720;14.384;2024-03-25T11:26:03;6.70;99.90
18779;DHT22;9518;51.720;14.384;2024-03-25T11:28:30;6.70;99.90
18779;DHT22;9518;51.720;14.384;2024-03-25T11:30:59;6.70;99.90
18779;DHT22;9518;51.720;14.384;2024-03-25T11:33:25;6.60;99.90
18779;DHT22;9518;51.720;14.384;2024-03-25T11:35:51;6.70;99.90
18779;DHT22;9518;51.720;14.384;2024-03-25T11:38:17;6.80;99.90
18779;DHT22;9518;51.720;14.384;2024-03-25T11:40:45;7.00;99.90
18779;DHT22;9518;51.720;14.384;2024-03-25T11:43:18;7.10;1.00
18779;DHT22;9518;51.720;14.384;2024-03-25T11:45:47;7.20;1.00
18779;DHT22;9518;51.720;14.384;2024-03-25T11:48:15;7.50;1.00
18779;DHT22;9518;51.720;14.384;2024-03-25T11:50:42;8.00;99.90
18779;DHT22;9518;51.720;14.384;2024-03-25T11:53:08;8.30;99.90
18779;DHT22;9518;51.720;14.384;2024-03-25T11:55:34;8.10;99.90
18779;DHT22;9518;51.720;14.384;2024-03-25T11:58:00;8.20;99.90
18779;DHT22;9518;51.720;14.384;2024-03-25T12:00:26;8.40;99.90
18779;DHT22;9518;51.720;14.384;2024-03-25T12:02:53;8.50;99.90
18779;DHT22;9518;51.720;14.384;2024-03-25T12:05:23;8.60;99.90
18779;DHT22;9518;51.720;14.384;2024-03-25T12:07:49;8.80;99.90
18779;DHT22;9518;51.720;14.384;2024-03-25T12:10:16;8.90;99.90
18779;DHT22;9518;51.720;14.384;2024-03-25T12:13:01;9.00;99.90
18779;DHT22;9518;51.720;14.384;2024-03-25T12:15:28;9.10;99.90
18779;DHT22;9518;51.720;14.384;2024-03-25T12:17:54;9.40;99.80
18779;DHT22;9518;51.720;14.384;2024-03-25T12:20:24;9.80;97.70
18779;DHT22;9518;51.720;14.384;2024-03-25T12:22:51;10.40;96.60
18779;DHT22;9518;51.720;14.384;2024-03-25T12:25:19;10.60;94.70
18779;DHT22;9518;51.720;14.384;2024-03-25T12:27:46;10.60;93.30
18779;DHT22;9518;51.720;14.384;2024-03-25T12:30:13;10.50;93.30
18779;DHT22;9518;51.720;14.384;2024-03-25T12:32:41;10.40;92.40
18779;DHT22;9518;51.720;14.384;2024-03-25T12:35:08;10.10;92.90
18779;DHT22;9518;51.720;14.384;2024-03-25T12:37:36;9.90;95.10
18779;DHT22;9518;51.720;14.384;2024-03-25T12:40:04;9.80;96.10
18779;DHT22;9518;51.720;14.384;2024-03-25T12:42:31;9.70;97.70
18779;DHT22;9518;51.720;14.384;2024-03-25T12:44:58;9.50;97.50
18779;DHT22;9518;51.720;14.384;2024-03-25T12:47:25;9.20;97.60
18779;DHT22;9518;51.720;14.384;2024-03-25T12:49:52;9.10;99.50
18779;DHT22;9518;51.720;14.384;2024-03-25T12:52:18;9.00;99.70
18779;DHT22;9518;51.720;14.384;2024-03-25T12:54:45;8.90;98.30
18779;DHT22;9518;51.720;14.384;2024-03-25T12:57:13;8.70;97.70
18779;DHT22;9518;51.720;14.384;2024-03-25T12:59:39;8.70;98.10
18779;DHT22;9518;51.720;14.384;2024-03-25T13:02:08;8.70;97.90
18779;DHT22;9518;51.720;14.384;2024-03-25T13:04:35;8.70;99.80
18779;DHT22;9518;51.720;14.384;2024-03-25T13:07:01;8.70;98.90
18779;DHT22;9518;51.720;14.384;2024-03-25T13:09:27;8.50;99.90
18779;DHT22;9518;51.720;14.384;2024-03-25T13:11:56;7.90;99.90
18779;DHT22;9518;51.720;14.384;2024-03-25T13:14:23;7.40;99.90
18779;DHT22;9518;51.720;14.384;2024-03-25T13:16:49;7.10;99.90
18779;DHT22;9518;51.720;14.384;2024-03-25T13:19:16;6.90;99.90
18779;DHT22;9518;51.720;14.384;2024-03-25T13:21:43;6.80;99.90
18779;DHT22;9518;51.720;14.384;2024-03-25T13:24:10;6.90;99.90
18779;DHT22;9518;51.720;14.384;2024-03-25T13:26:36;6.90;99.90
18779;DHT22;9518;51.720;14.384;2024-03-25T13:29:04;6.90;99.90
18779;DHT22;9518;51.720;14.384;2024-03-25T13:31:30;7.10;99.90
18779;DHT22;9518;51.720;14.384;2024-03-25T13:33:56;7.30;99.90
18779;DHT22;9518;51.720;14.384;2024-03-25T13:36:22;7.70;99.90
18779;DHT22;9518;51.720;14.384;2024-03-25T13:38:48;7.90;99.90
18779;DHT22;9518;51.720;14.384;2024-03-25T13:41:14;8.10;99.90
18779;DHT22;9518;51.720;14.384;2024-03-25T13:43:42;8.30;99.90
18779;DHT22;9518;51.720;14.384;2024-03-25T13:46:10;8.50;99.90
18779;DHT22;9518;51.720;14.384;2024-03-25T13:48:37;8.80;99.90
18779;DHT22;9518;51.720;14.384;2024-03-25T13:51:04;9.10;99.90
18779;DHT22;9518;51.720;14.384;2024-03-25T13:53:32;9.30;99.90
18779;DHT22;9518;51.720;14.384;2024-03-25T13:55:58;9.60;99.90
18779;DHT22;9518;51.720;14.384;2024-03-25T13:58:24;9.80;99.90
18779;DHT22;9518;51.720;14.384;2024-03-25T14:00:51;10.10;99.90
18779;DHT22;9518;51.720;14.384;2024-03-25T14:03:18;10.30;99.90
18779;DHT22;9518;51.720;14.384;2024-03-25T14:05:44;10.50;99.00
18779;DHT22;9518;51.720;14.384;2024-03-25T14:08:10;10.50;96.90
18779;DHT22;9518;51.720;14.384;2024-03-25T14:10:36;10.40;98.40
18779;DHT22;9518;51.720;14.384;2024-03-25T14:13:03;10.30;97.70
18779;DHT22;9518;51.720;14.384;2024-03-25T14:15:29;10.20;97.80
18779;DHT22;9518;51.720;14.384;2024-03-25T14:17:55;10.10;97.50
18779;DHT22;9518;51.720;14.384;2024-03-25T14:20:23;10.10;98.10
18779;DHT22;9518;51.720;14.384;2024-03-25T14:22:49;10.20;98.80
18779;DHT22;9518;51.720;14.384;2024-03-25T14:25:15;10.40;96.60
18779;DHT22;9518;51.720;14.384;2024-03-25T14:27:41;10.60;99.30
18779;DHT22;9518;51.720;14.384;2024-03-25T14:30:08;10.60;93.20
18779;DHT22;9518;51.720;14.384;2024-03-25T14:32:34;10.50;92.30
18779;DHT22;9518;51.720;14.384;2024-03-25T14:35:01;10.40;92.00
18779;DHT22;9518;51.720;14.384;2024-03-25T14:37:28;10.10;90.90
18779;DHT22;9518;51.720;14.384;2024-03-25T14:39:54;10.00;92.30
18779;DHT22;9518;51.720;14.384;2024-03-25T14:42:20;10.00;92.10
18779;DHT22;9518;51.720;14.384;2024-03-25T14:44:46;9.90;92.60
18779;DHT22;9518;51.720;14.384;2024-03-25T14:47:12;10.10;92.10
18779;DHT22;9518;51.720;14.384;2024-03-25T14:49:38;10.20;91.20
18779;DHT22;9518;51.720;14.384;2024-03-25T14:52:04;10.20;90.60
18779;DHT22;9518;51.720;14.384;2024-03-25T14:54:37;10.30;90.40
18779;DHT22;9518;51.720;14.384;2024-03-25T14:57:03;10.30;90.40
18779;DHT22;9518;51.720;14.384;2024-03-25T14:59:29;10.20;88.50
18779;DHT22;9518;51.720;14.384;2024-03-25T15:01:59;10.30;88.30
18779;DHT22;9518;51.720;14.384;2024-03-25T15:04:26;10.30;86.40
18779;DHT22;9518;51.720;14.384;2024-03-25T15:06:52;10.50;86.40
18779;DHT22;9518;51.720;14.384;2024-03-25T15:09:18;11.10;84.10
18779;DHT22;9518;51.720;14.384;2024-03-25T15:11:46;12.30;84.90
18779;DHT22;9518;51.720;14.384;2024-03-25T15:14:12;14.10;84.80
18779;DHT22;9518;51.720;14.384;2024-03-25T15:16:38;15.20;67.30
18779;DHT22;9518;51.720;14.384;2024-03-25T15:19:04;14.50;65.80
18779;DHT22;9518;51.720;14.384;2024-03-25T15:21:30;13.80;66.80
18779;DHT22;9518;51.720;14.384;2024-03-25T15:23:56;13.10;67.80
18779;DHT22;9518;51.720;14.384;2024-03-25T15:26:23;12.70;69.50
18779;DHT22;9518;51.720;14.384;2024-03-25T15:28:52;12.50;70.70
18779;DHT22;9518;51.720;14.384;2024-03-25T15:31:18;12.20;73.80
18779;DHT22;9518;51.720;14.384;2024-03-25T15:33:44;12.00;71.20
18779;DHT22;9518;51.720;14.384;2024-03-25T15:36:10;12.20;71.90
18779;DHT22;9518;51.720;14.384;2024-03-25T15:38:36;12.60;71.80
18779;DHT22;9518;51.720;14.384;2024-03-25T15:41:02;12.20;69.10
18779;DHT22;9518;51.720;14.384;2024-03-25T15:43:28;11.50;69.60